sensor_id;sensor_type;location;lat;lon;timestamp;P1;durP1;ratioP1;P2;durP2;ratioP2
32026;SDS011;18543;50.848;4.596;2023-04-25T00:00:18;2.85;;;1.80;;
32026;SDS011;18543;50.848;4.596;2023-04-25T00:02:46;3.53;;;1.83;;
32026;SDS011;18543;50.848;4.596;2023-04-25T00:05:16;3.05;;;1.70;;
32026;SDS011;18543;50.848;4.596;2023-04-25T00:07:43;2.85;;;1.88;;
32026;SDS011;18543;50.848;4.596;2023-04-25T00:10:11;3.80;;;1.98;;
32026;SDS011;18543;50.848;4.596;2023-04-25T00:12:38;3.40;;;1.73;;
32026;SDS011;18543;50.848;4.596;2023-04-25T00:15:06;2.90;;;1.80;;
32026;SDS011;18543;50.848;4.596;2023-04-25T00:17:33;2.92;;;1.70;;
32026;SDS011;18543;50.848;4.596;2023-04-25T00:20:01;2.65;;;1.67;;
32026;SDS011;18543;50.848;4.596;2023-04-25T00:22:31;2.20;;;1.65;;
32026;SDS011;18543;50.848;4.596;2023-04-25T00:24:59;3.60;;;1.65;;
32026;SDS011;18543;50.848;4.596;2023-04-25T00:27:27;2.92;;;1.85;;
32026;SDS011;18543;50.848;4.596;2023-04-25T00:29:54;3.67;;;2.00;;
32026;SDS011;18543;50.848;4.596;2023-04-25T00:32:23;3.08;;;1.90;;
32026;SDS011;18543;50.848;4.596;2023-04-25T00:34:51;4.03;;;1.95;;
32026;SDS011;18543;50.848;4.596;2023-04-25T00:37:18;4.20;;;1.73;;
32026;SDS011;18543;50.848;4.596;2023-04-25T00:39:46;3.42;;;1.77;;
32026;SDS011;18543;50.848;4.596;2023-04-25T00:42:13;4.17;;;1.97;;
32026;SDS011;18543;50.848;4.596;2023-04-25T00:44:40;2.97;;;1.80;;
32026;SDS011;18543;50.848;4.596;2023-04-25T00:47:08;4.18;;;1.90;;
32026;SDS011;18543;50.848;4.596;2023-04-25T00:49:35;3.83;;;1.92;;
32026;SDS011;18543;50.848;4.596;2023-04-25T00:52:02;2.70;;;1.60;;
32026;SDS011;18543;50.848;4.596;2023-04-25T00:54:29;3.87;;;1.70;;
32026;SDS011;18543;50.848;4.596;2023-04-25T00:56:57;3.72;;;1.75;;
32026;SDS011;18543;50.848;4.596;2023-04-25T00:59:24;5.25;;;1.88;;
32026;SDS011;18543;50.848;4.596;2023-04-25T01:01:53;3.13;;;1.88;;
32026;SDS011;18543;50.848;4.596;2023-04-25T01:04:21;3.15;;;1.90;;
32026;SDS011;18543;50.848;4.596;2023-04-25T01:06:48;2.63;;;1.80;;
32026;SDS011;18543;50.848;4.596;2023-04-25T01:09:16;3.88;;;1.80;;
32026;SDS011;18543;50.848;4.596;2023-04-25T01:11:43;3.13;;;1.70;;
32026;SDS011;18543;50.848;4.596;2023-04-25T01:14:11;2.30;;;1.90;;
32026;SDS011;18543;50.848;4.596;2023-04-25T01:16:45;2.38;;;1.55;;
32026;SDS011;18543;50.848;4.596;2023-04-25T01:19:12;2.67;;;1.87;;
32026;SDS011;18543;50.848;4.596;2023-04-25T01:21:45;2.33;;;1.80;;
32026;SDS011;18543;50.848;4.596;2023-04-25T01:24:12;3.50;;;1.98;;
32026;SDS011;18543;50.848;4.596;2023-04-25T01:26:40;2.30;;;1.70;;
32026;SDS011;18543;50.848;4.596;2023-04-25T01:29:16;3.95;;;2.00;;
32026;SDS011;18543;50.848;4.596;2023-04-25T01:31:44;3.70;;;1.77;;
32026;SDS011;18543;50.848;4.596;2023-04-25T01:34:12;2.50;;;1.90;;
32026;SDS011;18543;50.848;4.596;2023-04-25T01:36:39;2.67;;;1.92;;
32026;SDS011;18543;50.848;4.596;2023-04-25T01:39:07;3.22;;;1.90;;
32026;SDS011;18543;50.848;4.596;2023-04-25T01:41:34;4.78;;;2.05;;
32026;SDS011;18543;50.848;4.596;2023-04-25T01:44:02;2.77;;;1.80;;
32026;SDS011;18543;50.848;4.596;2023-04-25T01:46:29;4.75;;;2.00;;
32026;SDS011;18543;50.848;4.596;2023-04-25T01:48:57;2.78;;;1.80;;
32026;SDS011;18543;50.848;4.596;2023-04-25T01:51:24;4.23;;;2.30;;
32026;SDS011;18543;50.848;4.596;2023-04-25T01:53:52;2.55;;;1.80;;
32026;SDS011;18543;50.848;4.596;2023-04-25T01:56:19;3.27;;;1.97;;
32026;SDS011;18543;50.848;4.596;2023-04-25T01:58:46;3.53;;;2.10;;
32026;SDS011;18543;50.848;4.596;2023-04-25T02:01:13;2.75;;;1.77;;
32026;SDS011;18543;50.848;4.596;2023-04-25T02:03:41;2.93;;;1.93;;
32026;SDS011;18543;50.848;4.596;2023-04-25T02:06:08;2.63;;;1.92;;
32026;SDS011;18543;50.848;4.596;2023-04-25T02:08:35;3.35;;;1.90;;
32026;SDS011;18543;50.848;4.596;2023-04-25T02:11:03;3.17;;;1.95;;
32026;SDS011;18543;50.848;4.596;2023-04-25T02:13:30;2.50;;;1.75;;
32026;SDS011;18543;50.848;4.596;2023-04-25T02:15:58;2.20;;;1.90;;
32026;SDS011;18543;50.848;4.596;2023-04-25T02:18:25;2.87;;;1.90;;
32026;SDS011;18543;50.848;4.596;2023-04-25T02:20:52;3.80;;;2.10;;
32026;SDS011;18543;50.848;4.596;2023-04-25T02:23:20;2.97;;;1.73;;
32026;SDS011;18543;50.848;4.596;2023-04-25T02:25:47;3.93;;;1.93;;
32026;SDS011;18543;50.848;4.596;2023-04-25T02:30:42;3.10;;;1.80;;
32026;SDS011;18543;50.848;4.596;2023-04-25T02:33:09;2.88;;;1.80;;
32026;SDS011;18543;50.848;4.596;2023-04-25T02:35:37;3.60;;;1.70;;
32026;SDS011;18543;50.848;4.596;2023-04-25T02:38:04;3.58;;;1.80;;
32026;SDS011;18543;50.848;4.596;2023-04-25T02:40:31;2.00;;;1.80;;
32026;SDS011;18543;50.848;4.596;2023-04-25T02:42:58;3.05;;;2.00;;
32026;SDS011;18543;50.848;4.596;2023-04-25T02:45:26;1.83;;;1.70;;
32026;SDS011;18543;50.848;4.596;2023-04-25T02:47:53;3.03;;;1.87;;
32026;SDS011;18543;50.848;4.596;2023-04-25T02:50:20;3.85;;;2.00;;
32026;SDS011;18543;50.848;4.596;2023-04-25T02:52:48;2.93;;;1.63;;
32026;SDS011;18543;50.848;4.596;2023-04-25T02:55:15;3.20;;;1.80;;
32026;SDS011;18543;50.848;4.596;2023-04-25T02:57:42;3.37;;;2.03;;
32026;SDS011;18543;50.848;4.596;2023-04-25T03:00:10;2.22;;;1.90;;
32026;SDS011;18543;50.848;4.596;2023-04-25T03:02:37;3.00;;;1.80;;
32026;SDS011;18543;50.848;4.596;2023-04-25T03:05:05;3.07;;;1.87;;
32026;SDS011;18543;50.848;4.596;2023-04-25T03:07:33;2.42;;;1.63;;
32026;SDS011;18543;50.848;4.596;2023-04-25T03:10:00;3.87;;;1.90;;
32026;SDS011;18543;50.848;4.596;2023-04-25T03:12:28;3.05;;;1.73;;
32026;SDS011;18543;50.848;4.596;2023-04-25T03:14:55;3.00;;;1.97;;
32026;SDS011;18543;50.848;4.596;2023-04-25T03:17:23;2.20;;;1.93;;
32026;SDS011;18543;50.848;4.596;2023-04-25T03:19:50;3.67;;;2.00;;
32026;SDS011;18543;50.848;4.596;2023-04-25T03:22:17;2.85;;;1.80;;
32026;SDS011;18543;50.848;4.596;2023-04-25T03:24:44;4.73;;;2.03;;
32026;SDS011;18543;50.848;4.596;2023-04-25T03:27:12;2.95;;;1.70;;
32026;SDS011;18543;50.848;4.596;2023-04-25T03:29:39;2.88;;;1.70;;
32026;SDS011;18543;50.848;4.596;2023-04-25T03:32:07;1.93;;;1.73;;
32026;SDS011;18543;50.848;4.596;2023-04-25T03:34:34;3.10;;;2.00;;
32026;SDS011;18543;50.848;4.596;2023-04-25T03:37:01;2.47;;;1.63;;
32026;SDS011;18543;50.848;4.596;2023-04-25T03:39:28;3.90;;;1.90;;
32026;SDS011;18543;50.848;4.596;2023-04-25T03:41:56;2.58;;;1.63;;
32026;SDS011;18543;50.848;4.596;2023-04-25T03:44:23;3.22;;;1.90;;
32026;SDS011;18543;50.848;4.596;2023-04-25T03:46:50;2.83;;;1.90;;
32026;SDS011;18543;50.848;4.596;2023-04-25T03:49:18;3.03;;;1.80;;
32026;SDS011;18543;50.848;4.596;2023-04-25T03:51:45;2.92;;;1.80;;
32026;SDS011;18543;50.848;4.596;2023-04-25T03:54:12;3.85;;;2.05;;
32026;SDS011;18543;50.848;4.596;2023-04-25T03:56:39;3.10;;;1.80;;
32026;SDS011;18543;50.848;4.596;2023-04-25T03:59:07;2.43;;;1.77;;
32026;SDS011;18543;50.848;4.596;2023-04-25T04:01:34;2.27;;;1.57;;
32026;SDS011;18543;50.848;4.596;2023-04-25T04:04:01;3.47;;;1.97;;
32026;SDS011;18543;50.848;4.596;2023-04-25T04:06:29;4.53;;;1.85;;
32026;SDS011;18543;50.848;4.596;2023-04-25T04:08:56;1.93;;;1.67;;
32026;SDS011;18543;50.848;4.596;2023-04-25T04:11:24;2.87;;;1.80;;
32026;SDS011;18543;50.848;4.596;2023-04-25T04:13:51;2.83;;;1.60;;
32026;SDS011;18543;50.848;4.596;2023-04-25T04:16:18;3.47;;;2.00;;
32026;SDS011;18543;50.848;4.596;2023-04-25T04:18:46;3.08;;;1.80;;
32026;SDS011;18543;50.848;4.596;2023-04-25T04:21:13;4.10;;;2.10;;
32026;SDS011;18543;50.848;4.596;2023-04-25T04:23:41;2.30;;;1.85;;
32026;SDS011;18543;50.848;4.596;2023-04-25T04:26:08;2.83;;;1.90;;
32026;SDS011;18543;50.848;4.596;2023-04-25T04:28:36;4.68;;;2.03;;
32026;SDS011;18543;50.848;4.596;2023-04-25T04:31:03;4.78;;;1.92;;
32026;SDS011;18543;50.848;4.596;2023-04-25T04:33:31;3.80;;;1.53;;
32026;SDS011;18543;50.848;4.596;2023-04-25T04:35:58;2.60;;;1.77;;
32026;SDS011;18543;50.848;4.596;2023-04-25T04:38:27;3.58;;;2.00;;
32026;SDS011;18543;50.848;4.596;2023-04-25T04:40:54;3.03;;;1.88;;
32026;SDS011;18543;50.848;4.596;2023-04-25T04:43:22;4.10;;;1.83;;
32026;SDS011;18543;50.848;4.596;2023-04-25T04:45:49;4.97;;;1.90;;
32026;SDS011;18543;50.848;4.596;2023-04-25T04:48:16;4.73;;;1.80;;
32026;SDS011;18543;50.848;4.596;2023-04-25T04:50:44;4.80;;;2.17;;
32026;SDS011;18543;50.848;4.596;2023-04-25T04:53:12;6.72;;;1.95;;
32026;SDS011;18543;50.848;4.596;2023-04-25T04:55:39;4.47;;;2.10;;
32026;SDS011;18543;50.848;4.596;2023-04-25T04:58:07;3.05;;;1.83;;
32026;SDS011;18543;50.848;4.596;2023-04-25T05:00:35;5.20;;;2.00;;
32026;SDS011;18543;50.848;4.596;2023-04-25T05:03:02;2.37;;;1.73;;
32026;SDS011;18543;50.848;4.596;2023-04-25T05:05:30;3.97;;;2.10;;
32026;SDS011;18543;50.848;4.596;2023-04-25T05:07:57;3.65;;;2.22;;
32026;SDS011;18543;50.848;4.596;2023-04-25T05:10:25;3.70;;;1.80;;
32026;SDS011;18543;50.848;4.596;2023-04-25T05:12:52;1.98;;;1.50;;
32026;SDS011;18543;50.848;4.596;2023-04-25T05:15:19;3.47;;;1.80;;
32026;SDS011;18543;50.848;4.596;2023-04-25T05:17:47;4.00;;;2.00;;
32026;SDS011;18543;50.848;4.596;2023-04-25T05:20:14;3.05;;;1.60;;
32026;SDS011;18543;50.848;4.596;2023-04-25T05:22:41;4.27;;;2.10;;
32026;SDS011;18543;50.848;4.596;2023-04-25T05:25:09;3.80;;;2.10;;
32026;SDS011;18543;50.848;4.596;2023-04-25T05:27:36;3.42;;;2.08;;
32026;SDS011;18543;50.848;4.596;2023-04-25T05:30:03;5.30;;;1.90;;
32026;SDS011;18543;50.848;4.596;2023-04-25T05:32:31;4.97;;;2.28;;
32026;SDS011;18543;50.848;4.596;2023-04-25T05:34:59;4.87;;;1.90;;
32026;SDS011;18543;50.848;4.596;2023-04-25T05:37:27;8.38;;;2.35;;
32026;SDS011;18543;50.848;4.596;2023-04-25T05:39:56;8.30;;;2.30;;
32026;SDS011;18543;50.848;4.596;2023-04-25T05:42:23;5.03;;;2.28;;
32026;SDS011;18543;50.848;4.596;2023-04-25T05:44:51;4.07;;;2.15;;
32026;SDS011;18543;50.848;4.596;2023-04-25T05:47:18;4.63;;;2.10;;
32026;SDS011;18543;50.848;4.596;2023-04-25T05:49:45;7.73;;;2.03;;
32026;SDS011;18543;50.848;4.596;2023-04-25T05:52:12;6.70;;;2.23;;
32026;SDS011;18543;50.848;4.596;2023-04-25T05:54:41;4.90;;;2.13;;
32026;SDS011;18543;50.848;4.596;2023-04-25T05:57:08;6.80;;;1.90;;
32026;SDS011;18543;50.848;4.596;2023-04-25T05:59:35;4.53;;;2.10;;
32026;SDS011;18543;50.848;4.596;2023-04-25T06:02:03;4.63;;;1.92;;
32026;SDS011;18543;50.848;4.596;2023-04-25T06:04:30;5.88;;;1.98;;
32026;SDS011;18543;50.848;4.596;2023-04-25T06:06:58;8.45;;;2.40;;
32026;SDS011;18543;50.848;4.596;2023-04-25T06:09:25;8.35;;;2.22;;
32026;SDS011;18543;50.848;4.596;2023-04-25T06:11:52;7.00;;;2.28;;
32026;SDS011;18543;50.848;4.596;2023-04-25T06:14:20;6.57;;;2.30;;
32026;SDS011;18543;50.848;4.596;2023-04-25T06:16:47;6.55;;;1.98;;
32026;SDS011;18543;50.848;4.596;2023-04-25T06:19:14;7.53;;;2.57;;
32026;SDS011;18543;50.848;4.596;2023-04-25T06:21:42;11.02;;;2.40;;
32026;SDS011;18543;50.848;4.596;2023-04-25T06:24:10;11.13;;;2.58;;
32026;SDS011;18543;50.848;4.596;2023-04-25T06:26:37;9.20;;;2.35;;
32026;SDS011;18543;50.848;4.596;2023-04-25T06:29:04;8.37;;;2.60;;
32026;SDS011;18543;50.848;4.596;2023-04-25T06:31:32;6.60;;;2.50;;
32026;SDS011;18543;50.848;4.596;2023-04-25T06:34:01;7.47;;;2.53;;
32026;SDS011;18543;50.848;4.596;2023-04-25T06:36:29;7.32;;;2.47;;
32026;SDS011;18543;50.848;4.596;2023-04-25T06:38:56;7.78;;;2.40;;
32026;SDS011;18543;50.848;4.596;2023-04-25T06:41:23;8.52;;;2.55;;
32026;SDS011;18543;50.848;4.596;2023-04-25T06:43:51;8.87;;;2.37;;
32026;SDS011;18543;50.848;4.596;2023-04-25T06:46:18;6.68;;;2.20;;
32026;SDS011;18543;50.848;4.596;2023-04-25T06:48:45;14.05;;;3.05;;
32026;SDS011;18543;50.848;4.596;2023-04-25T06:51:13;13.63;;;2.95;;
32026;SDS011;18543;50.848;4.596;2023-04-25T06:53:40;10.30;;;2.80;;
32026;SDS011;18543;50.848;4.596;2023-04-25T06:56:08;7.60;;;2.72;;
32026;SDS011;18543;50.848;4.596;2023-04-25T06:58:37;7.50;;;2.47;;
32026;SDS011;18543;50.848;4.596;2023-04-25T07:01:05;12.13;;;3.15;;
32026;SDS011;18543;50.848;4.596;2023-04-25T07:03:32;15.65;;;3.15;;
32026;SDS011;18543;50.848;4.596;2023-04-25T07:06:00;13.20;;;2.78;;
32026;SDS011;18543;50.848;4.596;2023-04-25T07:08:28;9.07;;;2.90;;
32026;SDS011;18543;50.848;4.596;2023-04-25T07:10:58;6.88;;;2.95;;
32026;SDS011;18543;50.848;4.596;2023-04-25T07:13:25;7.90;;;2.90;;
32026;SDS011;18543;50.848;4.596;2023-04-25T07:15:52;11.27;;;2.92;;
32026;SDS011;18543;50.848;4.596;2023-04-25T07:18:22;10.65;;;3.08;;
32026;SDS011;18543;50.848;4.596;2023-04-25T07:20:52;10.00;;;2.65;;
32026;SDS011;18543;50.848;4.596;2023-04-25T07:23:19;9.80;;;2.78;;
32026;SDS011;18543;50.848;4.596;2023-04-25T07:25:47;9.23;;;2.83;;
32026;SDS011;18543;50.848;4.596;2023-04-25T07:28:14;8.70;;;3.13;;
32026;SDS011;18543;50.848;4.596;2023-04-25T07:30:44;10.65;;;2.80;;
32026;SDS011;18543;50.848;4.596;2023-04-25T07:33:14;8.32;;;2.50;;
32026;SDS011;18543;50.848;4.596;2023-04-25T07:35:41;12.00;;;2.70;;
32026;SDS011;18543;50.848;4.596;2023-04-25T07:38:08;7.50;;;2.85;;
32026;SDS011;18543;50.848;4.596;2023-04-25T07:40:36;8.38;;;2.85;;
32026;SDS011;18543;50.848;4.596;2023-04-25T07:43:03;11.43;;;2.80;;
32026;SDS011;18543;50.848;4.596;2023-04-25T07:45:31;8.40;;;2.95;;
32026;SDS011;18543;50.848;4.596;2023-04-25T07:47:58;9.45;;;3.53;;
32026;SDS011;18543;50.848;4.596;2023-04-25T07:50:25;12.63;;;3.30;;
32026;SDS011;18543;50.848;4.596;2023-04-25T07:52:53;13.50;;;3.40;;
32026;SDS011;18543;50.848;4.596;2023-04-25T07:55:20;13.07;;;3.40;;
32026;SDS011;18543;50.848;4.596;2023-04-25T07:57:47;7.18;;;3.00;;
32026;SDS011;18543;50.848;4.596;2023-04-25T08:00:14;10.13;;;3.37;;
32026;SDS011;18543;50.848;4.596;2023-04-25T08:02:42;11.83;;;3.30;;
32026;SDS011;18543;50.848;4.596;2023-04-25T08:05:09;5.80;;;2.53;;
32026;SDS011;18543;50.848;4.596;2023-04-25T08:07:42;9.13;;;3.00;;
32026;SDS011;18543;50.848;4.596;2023-04-25T08:10:10;7.90;;;2.72;;
32026;SDS011;18543;50.848;4.596;2023-04-25T08:12:37;7.57;;;2.90;;
32026;SDS011;18543;50.848;4.596;2023-04-25T08:15:05;10.02;;;2.90;;
32026;SDS011;18543;50.848;4.596;2023-04-25T08:17:32;7.88;;;2.80;;
32026;SDS011;18543;50.848;4.596;2023-04-25T08:19:59;8.93;;;3.03;;
32026;SDS011;18543;50.848;4.596;2023-04-25T08:22:29;10.77;;;2.90;;
32026;SDS011;18543;50.848;4.596;2023-04-25T08:24:56;9.10;;;3.03;;
32026;SDS011;18543;50.848;4.596;2023-04-25T08:27:24;13.47;;;3.33;;
32026;SDS011;18543;50.848;4.596;2023-04-25T08:29:51;10.93;;;3.60;;
32026;SDS011;18543;50.848;4.596;2023-04-25T08:32:18;11.17;;;3.30;;
32026;SDS011;18543;50.848;4.596;2023-04-25T08:34:47;20.33;;;4.60;;
32026;SDS011;18543;50.848;4.596;2023-04-25T08:37:20;23.58;;;5.15;;
32026;SDS011;18543;50.848;4.596;2023-04-25T08:39:47;22.55;;;5.45;;
32026;SDS011;18543;50.848;4.596;2023-04-25T08:42:15;21.73;;;5.00;;
32026;SDS011;18543;50.848;4.596;2023-04-25T08:44:42;21.90;;;5.20;;
32026;SDS011;18543;50.848;4.596;2023-04-25T08:47:09;21.23;;;5.27;;
32026;SDS011;18543;50.848;4.596;2023-04-25T08:49:37;18.63;;;5.53;;
32026;SDS011;18543;50.848;4.596;2023-04-25T08:52:05;23.00;;;5.20;;
32026;SDS011;18543;50.848;4.596;2023-04-25T08:54:33;22.03;;;5.87;;
32026;SDS011;18543;50.848;4.596;2023-04-25T08:57:03;24.25;;;5.72;;
32026;SDS011;18543;50.848;4.596;2023-04-25T08:59:31;22.10;;;5.70;;
32026;SDS011;18543;50.848;4.596;2023-04-25T09:02:00;23.60;;;5.72;;
32026;SDS011;18543;50.848;4.596;2023-04-25T09:04:29;22.50;;;5.73;;
32026;SDS011;18543;50.848;4.596;2023-04-25T09:06:56;19.40;;;5.65;;
32026;SDS011;18543;50.848;4.596;2023-04-25T09:11:52;23.47;;;5.80;;
32026;SDS011;18543;50.848;4.596;2023-04-25T09:14:22;20.40;;;5.63;;
32026;SDS011;18543;50.848;4.596;2023-04-25T09:19:31;21.75;;;4.90;;
32026;SDS011;18543;50.848;4.596;2023-04-25T09:22:03;19.60;;;5.72;;
32026;SDS011;18543;50.848;4.596;2023-04-25T09:27:07;14.00;;;4.88;;
32026;SDS011;18543;50.848;4.596;2023-04-25T09:29:36;19.25;;;5.05;;
32026;SDS011;18543;50.848;4.596;2023-04-25T09:34:37;15.65;;;4.30;;
32026;SDS011;18543;50.848;4.596;2023-04-25T09:37:06;15.98;;;4.25;;
32026;SDS011;18543;50.848;4.596;2023-04-25T09:39:34;16.38;;;4.80;;
32026;SDS011;18543;50.848;4.596;2023-04-25T09:42:02;14.35;;;4.28;;
32026;SDS011;18543;50.848;4.596;2023-04-25T09:44:29;15.20;;;4.40;;
32026;SDS011;18543;50.848;4.596;2023-04-25T09:46:57;10.47;;;3.70;;
32026;SDS011;18543;50.848;4.596;2023-04-25T09:49:25;12.43;;;4.05;;
32026;SDS011;18543;50.848;4.596;2023-04-25T09:51:56;14.70;;;4.03;;
32026;SDS011;18543;50.848;4.596;2023-04-25T09:54:24;12.55;;;4.20;;
32026;SDS011;18543;50.848;4.596;2023-04-25T09:59:22;17.13;;;4.63;;
32026;SDS011;18543;50.848;4.596;2023-04-25T10:01:49;14.30;;;4.10;;
32026;SDS011;18543;50.848;4.596;2023-04-25T10:04:19;14.35;;;3.70;;
32026;SDS011;18543;50.848;4.596;2023-04-25T10:06:48;10.70;;;4.13;;
32026;SDS011;18543;50.848;4.596;2023-04-25T10:09:16;12.73;;;4.03;;
32026;SDS011;18543;50.848;4.596;2023-04-25T10:11:46;13.30;;;3.45;;
32026;SDS011;18543;50.848;4.596;2023-04-25T10:14:18;14.68;;;3.90;;
32026;SDS011;18543;50.848;4.596;2023-04-25T10:16:45;10.57;;;3.55;;
32026;SDS011;18543;50.848;4.596;2023-04-25T10:19:14;8.13;;;3.35;;
32026;SDS011;18543;50.848;4.596;2023-04-25T10:24:09;9.90;;;2.97;;
32026;SDS011;18543;50.848;4.596;2023-04-25T10:26:37;10.10;;;3.60;;
32026;SDS011;18543;50.848;4.596;2023-04-25T10:29:04;9.33;;;3.67;;
32026;SDS011;18543;50.848;4.596;2023-04-25T10:31:31;10.90;;;3.47;;
32026;SDS011;18543;50.848;4.596;2023-04-25T10:33:59;9.50;;;3.17;;
32026;SDS011;18543;50.848;4.596;2023-04-25T10:36:28;12.68;;;3.65;;
32026;SDS011;18543;50.848;4.596;2023-04-25T10:38:58;10.05;;;3.13;;
32026;SDS011;18543;50.848;4.596;2023-04-25T10:41:45;12.15;;;3.15;;
32026;SDS011;18543;50.848;4.596;2023-04-25T10:44:12;9.75;;;3.00;;
32026;SDS011;18543;50.848;4.596;2023-04-25T10:46:40;13.98;;;3.53;;
32026;SDS011;18543;50.848;4.596;2023-04-25T10:49:07;9.60;;;3.03;;
32026;SDS011;18543;50.848;4.596;2023-04-25T10:51:39;5.93;;;2.88;;
32026;SDS011;18543;50.848;4.596;2023-04-25T10:54:20;6.90;;;2.80;;
32026;SDS011;18543;50.848;4.596;2023-04-25T10:56:52;10.77;;;3.30;;
32026;SDS011;18543;50.848;4.596;2023-04-25T10:59:19;10.05;;;3.00;;
32026;SDS011;18543;50.848;4.596;2023-04-25T11:01:48;8.93;;;2.88;;
32026;SDS011;18543;50.848;4.596;2023-04-25T11:04:19;8.32;;;2.95;;
32026;SDS011;18543;50.848;4.596;2023-04-25T11:09:34;6.72;;;2.97;;
32026;SDS011;18543;50.848;4.596;2023-04-25T11:12:02;12.32;;;3.35;;
32026;SDS011;18543;50.848;4.596;2023-04-25T11:14:29;10.10;;;2.55;;
32026;SDS011;18543;50.848;4.596;2023-04-25T11:16:57;6.70;;;2.45;;
32026;SDS011;18543;50.848;4.596;2023-04-25T11:19:26;6.95;;;2.35;;
32026;SDS011;18543;50.848;4.596;2023-04-25T11:24:25;7.47;;;2.58;;
32026;SDS011;18543;50.848;4.596;2023-04-25T11:26:52;5.88;;;2.50;;
32026;SDS011;18543;50.848;4.596;2023-04-25T11:29:23;7.90;;;2.58;;
32026;SDS011;18543;50.848;4.596;2023-04-25T11:31:50;5.50;;;2.42;;
32026;SDS011;18543;50.848;4.596;2023-04-25T11:34:18;7.93;;;2.73;;
32026;SDS011;18543;50.848;4.596;2023-04-25T11:36:46;5.82;;;2.60;;
32026;SDS011;18543;50.848;4.596;2023-04-25T11:39:13;6.63;;;2.35;;
32026;SDS011;18543;50.848;4.596;2023-04-25T11:44:10;4.72;;;2.20;;
32026;SDS011;18543;50.848;4.596;2023-04-25T11:46:38;6.47;;;2.23;;
32026;SDS011;18543;50.848;4.596;2023-04-25T11:49:05;7.07;;;2.60;;
32026;SDS011;18543;50.848;4.596;2023-04-25T11:51:39;8.53;;;2.47;;
32026;SDS011;18543;50.848;4.596;2023-04-25T11:54:06;5.60;;;2.20;;
32026;SDS011;18543;50.848;4.596;2023-04-25T11:56:34;4.47;;;2.28;;
32026;SDS011;18543;50.848;4.596;2023-04-25T11:59:02;6.82;;;2.22;;
32026;SDS011;18543;50.848;4.596;2023-04-25T12:04:10;4.65;;;2.28;;
32026;SDS011;18543;50.848;4.596;2023-04-25T12:06:38;7.70;;;2.65;;
32026;SDS011;18543;50.848;4.596;2023-04-25T12:09:07;5.47;;;2.30;;
32026;SDS011;18543;50.848;4.596;2023-04-25T12:11:41;4.68;;;2.08;;
32026;SDS011;18543;50.848;4.596;2023-04-25T12:14:10;6.80;;;2.35;;
32026;SDS011;18543;50.848;4.596;2023-04-25T12:19:05;5.20;;;1.98;;
32026;SDS011;18543;50.848;4.596;2023-04-25T12:21:32;5.10;;;2.13;;
32026;SDS011;18543;50.848;4.596;2023-04-25T12:24:18;7.03;;;2.15;;
32026;SDS011;18543;50.848;4.596;2023-04-25T12:26:53;4.38;;;2.00;;
32026;SDS011;18543;50.848;4.596;2023-04-25T12:29:26;4.82;;;2.20;;
32026;SDS011;18543;50.848;4.596;2023-04-25T12:32:00;5.20;;;2.20;;
32026;SDS011;18543;50.848;4.596;2023-04-25T12:34:28;5.18;;;2.08;;
32026;SDS011;18543;50.848;4.596;2023-04-25T12:36:55;3.33;;;1.90;;
32026;SDS011;18543;50.848;4.596;2023-04-25T12:39:25;5.68;;;2.10;;
32026;SDS011;18543;50.848;4.596;2023-04-25T12:41:52;8.55;;;2.35;;
32026;SDS011;18543;50.848;4.596;2023-04-25T12:44:20;4.47;;;1.83;;
32026;SDS011;18543;50.848;4.596;2023-04-25T12:46:48;6.03;;;2.10;;
32026;SDS011;18543;50.848;4.596;2023-04-25T12:49:16;5.15;;;2.33;;
32026;SDS011;18543;50.848;4.596;2023-04-25T12:51:44;4.25;;;1.85;;
32026;SDS011;18543;50.848;4.596;2023-04-25T12:56:40;4.65;;;2.10;;
32026;SDS011;18543;50.848;4.596;2023-04-25T12:59:08;4.45;;;2.03;;
32026;SDS011;18543;50.848;4.596;2023-04-25T13:01:35;9.33;;;1.90;;
32026;SDS011;18543;50.848;4.596;2023-04-25T13:04:03;5.80;;;2.08;;
32026;SDS011;18543;50.848;4.596;2023-04-25T13:06:31;10.00;;;2.05;;
32026;SDS011;18543;50.848;4.596;2023-04-25T13:08:58;5.35;;;2.00;;
32026;SDS011;18543;50.848;4.596;2023-04-25T13:11:26;4.65;;;1.95;;
32026;SDS011;18543;50.848;4.596;2023-04-25T13:14:01;6.05;;;2.10;;
32026;SDS011;18543;50.848;4.596;2023-04-25T13:16:28;4.30;;;1.90;;
32026;SDS011;18543;50.848;4.596;2023-04-25T13:18:56;8.02;;;2.30;;
32026;SDS011;18543;50.848;4.596;2023-04-25T13:21:23;4.03;;;1.93;;
32026;SDS011;18543;50.848;4.596;2023-04-25T13:23:50;4.85;;;2.10;;
32026;SDS011;18543;50.848;4.596;2023-04-25T13:26:18;4.85;;;2.10;;
32026;SDS011;18543;50.848;4.596;2023-04-25T13:28:45;3.40;;;1.80;;
32026;SDS011;18543;50.848;4.596;2023-04-25T13:31:13;6.05;;;1.90;;
32026;SDS011;18543;50.848;4.596;2023-04-25T13:33:40;3.37;;;1.83;;
32026;SDS011;18543;50.848;4.596;2023-04-25T13:36:07;6.37;;;2.67;;
32026;SDS011;18543;50.848;4.596;2023-04-25T13:38:35;8.50;;;2.50;;
32026;SDS011;18543;50.848;4.596;2023-04-25T13:41:02;7.88;;;2.42;;
32026;SDS011;18543;50.848;4.596;2023-04-25T13:43:29;4.13;;;2.00;;
32026;SDS011;18543;50.848;4.596;2023-04-25T13:45:57;5.65;;;1.95;;
32026;SDS011;18543;50.848;4.596;2023-04-25T13:48:27;3.67;;;1.98;;
32026;SDS011;18543;50.848;4.596;2023-04-25T13:50:54;5.33;;;2.20;;
32026;SDS011;18543;50.848;4.596;2023-04-25T13:53:21;4.63;;;2.10;;
32026;SDS011;18543;50.848;4.596;2023-04-25T13:55:48;3.53;;;1.90;;
32026;SDS011;18543;50.848;4.596;2023-04-25T13:58:16;4.72;;;2.38;;
32026;SDS011;18543;50.848;4.596;2023-04-25T14:00:46;4.47;;;1.95;;
32026;SDS011;18543;50.848;4.596;2023-04-25T14:03:16;4.17;;;2.00;;
32026;SDS011;18543;50.848;4.596;2023-04-25T14:05:43;6.30;;;2.03;;
32026;SDS011;18543;50.848;4.596;2023-04-25T14:08:11;4.47;;;2.17;;
32026;SDS011;18543;50.848;4.596;2023-04-25T14:10:38;4.70;;;1.70;;
32026;SDS011;18543;50.848;4.596;2023-04-25T14:13:05;7.35;;;1.90;;
32026;SDS011;18543;50.848;4.596;2023-04-25T14:15:36;3.58;;;1.98;;
32026;SDS011;18543;50.848;4.596;2023-04-25T14:18:03;4.45;;;1.80;;
32026;SDS011;18543;50.848;4.596;2023-04-25T14:20:31;5.90;;;1.98;;
32026;SDS011;18543;50.848;4.596;2023-04-25T14:22:59;3.93;;;1.70;;
32026;SDS011;18543;50.848;4.596;2023-04-25T14:25:27;3.95;;;1.55;;
32026;SDS011;18543;50.848;4.596;2023-04-25T14:27:54;4.18;;;2.00;;
32026;SDS011;18543;50.848;4.596;2023-04-25T14:30:21;3.75;;;1.98;;
32026;SDS011;18543;50.848;4.596;2023-04-25T14:32:49;3.20;;;1.90;;
32026;SDS011;18543;50.848;4.596;2023-04-25T14:35:16;2.92;;;1.60;;
32026;SDS011;18543;50.848;4.596;2023-04-25T14:37:44;4.13;;;1.80;;
32026;SDS011;18543;50.848;4.596;2023-04-25T14:40:11;4.70;;;1.77;;
32026;SDS011;18543;50.848;4.596;2023-04-25T14:42:39;3.17;;;1.60;;
32026;SDS011;18543;50.848;4.596;2023-04-25T14:45:07;3.35;;;1.70;;
32026;SDS011;18543;50.848;4.596;2023-04-25T14:47:35;3.45;;;1.80;;
32026;SDS011;18543;50.848;4.596;2023-04-25T14:50:06;4.22;;;1.40;;
32026;SDS011;18543;50.848;4.596;2023-04-25T14:52:36;2.55;;;1.50;;
32026;SDS011;18543;50.848;4.596;2023-04-25T14:55:03;2.70;;;1.50;;
32026;SDS011;18543;50.848;4.596;2023-04-25T14:57:33;3.72;;;1.60;;
32026;SDS011;18543;50.848;4.596;2023-04-25T15:00:01;4.15;;;1.67;;
32026;SDS011;18543;50.848;4.596;2023-04-25T15:02:31;3.13;;;1.70;;
32026;SDS011;18543;50.848;4.596;2023-04-25T15:04:58;4.30;;;1.70;;
32026;SDS011;18543;50.848;4.596;2023-04-25T15:07:27;4.45;;;1.35;;
32026;SDS011;18543;50.848;4.596;2023-04-25T15:09:54;3.67;;;1.40;;
32026;SDS011;18543;50.848;4.596;2023-04-25T15:12:22;2.92;;;1.52;;
32026;SDS011;18543;50.848;4.596;2023-04-25T15:14:52;3.63;;;1.50;;
32026;SDS011;18543;50.848;4.596;2023-04-25T15:17:19;4.13;;;1.77;;
32026;SDS011;18543;50.848;4.596;2023-04-25T15:19:46;4.30;;;1.60;;
32026;SDS011;18543;50.848;4.596;2023-04-25T15:22:14;2.75;;;1.55;;